sensor_id;sensor_type;location;lat;lon;timestamp;pressure;altitude;pressure_sealevel;temperature;humidity
57442;BME280;43284;47.042;15.498;2023-02-10T00:02:24;99029.66;;;-7.07;79.28
57442;BME280;43284;47.042;15.498;2023-02-10T00:04:50;99021.94;;;-7.09;79.57
57442;BME280;43284;47.042;15.498;2023-02-10T00:07:17;99024.47;;;-7.09;80.16
57442;BME280;43284;47.042;15.498;2023-02-10T00:09:43;99021.78;;;-7.12;80.03
57442;BME280;43284;47.042;15.498;2023-02-10T00:12:09;99026.78;;;-7.13;80.13
57442;BME280;43284;47.042;15.498;2023-02-10T00:14:36;99028.13;;;-7.20;79.17
57442;BME280;43284;47.042;15.498;2023-02-10T00:17:02;99030.13;;;-7.31;79.84
57442;BME280;43284;47.042;15.498;2023-02-10T00:19:29;99025.13;;;-7.29;79.87
57442;BME280;43284;47.042;15.498;2023-02-10T00:21:56;99022.50;;;-7.31;79.77
57442;BME280;43284;47.042;15.498;2023-02-10T00:24:23;99024.19;;;-7.31;80.17
57442;BME280;43284;47.042;15.498;2023-02-10T00:26:49;99022.50;;;-7.31;80.57
57442;BME280;43284;47.042;15.498;2023-02-10T00:29:16;99020.78;;;-7.32;80.65
57442;BME280;43284;47.042;15.498;2023-02-10T00:31:42;99019.09;;;-7.31;80.36
57442;BME280;43284;47.042;15.498;2023-02-10T00:34:13;99013.94;;;-7.33;80.24
57442;BME280;43284;47.042;15.498;2023-02-10T00:36:39;99019.91;;;-7.32;79.88
57442;BME280;43284;47.042;15.498;2023-02-10T00:39:05;99020.69;;;-7.33;80.62
57442;BME280;43284;47.042;15.498;2023-02-10T00:41:31;99010.38;;;-7.36;80.19
57442;BME280;43284;47.042;15.498;2023-02-10T00:43:57;99011.97;;;-7.38;80.66
57442;BME280;43284;47.042;15.498;2023-02-10T00:46:23;99017.75;;;-7.41;80.34
57442;BME280;43284;47.042;15.498;2023-02-10T00:48:49;99014.66;;;-7.52;79.76
57442;BME280;43284;47.042;15.498;2023-02-10T00:51:16;99024.81;;;-7.52;80.83
57442;BME280;43284;47.042;15.498;2023-02-10T00:53:43;99026.47;;;-7.52;80.76
57442;BME280;43284;47.042;15.498;2023-02-10T00:56:09;99013.75;;;-7.52;80.79
57442;BME280;43284;47.042;15.498;2023-02-10T00:58:35;99025.59;;;-7.53;80.81
57442;BME280;43284;47.042;15.498;2023-02-10T01:01:02;99026.31;;;-7.55;80.88
57442;BME280;43284;47.042;15.498;2023-02-10T01:03:28;99021.09;;;-7.58;80.32
57442;BME280;43284;47.042;15.498;2023-02-10T01:05:54;99025.25;;;-7.59;80.72
57442;BME280;43284;47.042;15.498;2023-02-10T01:08:19;99020.19;;;-7.59;80.35
57442;BME280;43284;47.042;15.498;2023-02-10T01:10:45;99017.03;;;-7.55;80.90
57442;BME280;43284;47.042;15.498;2023-02-10T01:13:12;99014.25;;;-7.59;80.40
57442;BME280;43284;47.042;15.498;2023-02-10T01:15:45;99016.00;;;-7.58;80.21
57442;BME280;43284;47.042;15.498;2023-02-10T01:18:12;99021.72;;;-7.62;80.41
57442;BME280;43284;47.042;15.498;2023-02-10T01:20:39;99013.91;;;-7.66;80.63
57442;BME280;43284;47.042;15.498;2023-02-10T01:23:05;99014.97;;;-7.62;81.05
57442;BME280;43284;47.042;15.498;2023-02-10T01:25:33;99012.09;;;-7.68;80.65
57442;BME280;43284;47.042;15.498;2023-02-10T01:27:59;99025.41;;;-7.72;80.54
57442;BME280;43284;47.042;15.498;2023-02-10T01:30:25;99015.25;;;-7.72;80.65
57442;BME280;43284;47.042;15.498;2023-02-10T01:32:54;99015.19;;;-7.74;80.50
57442;BME280;43284;47.042;15.498;2023-02-10T01:35:20;99024.44;;;-7.74;80.99
57442;BME280;43284;47.042;15.498;2023-02-10T01:37:46;99022.72;;;-7.75;80.67
57442;BME280;43284;47.042;15.498;2023-02-10T01:40:12;99016.59;;;-7.79;80.36
57442;BME280;43284;47.042;15.498;2023-02-10T01:42:37;99013.44;;;-7.75;81.95
57442;BME280;43284;47.042;15.498;2023-02-10T01:45:31;99005.88;;;-7.90;80.89
57442;BME280;43284;47.042;15.498;2023-02-10T01:47:57;99010.06;;;-7.90;80.76
57442;BME280;43284;47.042;15.498;2023-02-10T01:50:29;99009.97;;;-7.92;81.52
57442;BME280;43284;47.042;15.498;2023-02-10T01:52:57;99013.16;;;-7.96;81.13
57442;BME280;43284;47.042;15.498;2023-02-10T01:55:28;99013.47;;;-7.90;81.94
57442;BME280;43284;47.042;15.498;2023-02-10T01:57:55;99013.03;;;-7.82;82.70
57442;BME280;43284;47.042;15.498;2023-02-10T02:00:22;99013.91;;;-7.82;81.88
57442;BME280;43284;47.042;15.498;2023-02-10T02:02:48;99006.34;;;-7.97;80.72
57442;BME280;43284;47.042;15.498;2023-02-10T02:05:29;99011.75;;;-7.91;81.49
57442;BME280;43284;47.042;15.498;2023-02-10T02:07:58;99005.38;;;-7.99;81.12
57442;BME280;43284;47.042;15.498;2023-02-10T02:10:34;99001.97;;;-7.99;81.68
57442;BME280;43284;47.042;15.498;2023-02-10T02:13:09;99011.16;;;-8.01;81.82
57442;BME280;43284;47.042;15.498;2023-02-10T02:15:47;99005.13;;;-8.03;80.95
57442;BME280;43284;47.042;15.498;2023-02-10T02:18:47;99002.59;;;-8.03;81.78
57442;BME280;43284;47.042;15.498;2023-02-10T02:27:50;98991.34;;;-8.09;81.19
57442;BME280;43284;47.042;15.498;2023-02-10T02:30:55;98991.25;;;-8.10;82.21
57442;BME280;43284;47.042;15.498;2023-02-10T02:33:36;98990.44;;;-8.09;82.58
57442;BME280;43284;47.042;15.498;2023-02-10T02:36:11;98993.94;;;-8.07;83.02
57442;BME280;43284;47.042;15.498;2023-02-10T02:38:40;98983.63;;;-8.10;82.54
57442;BME280;43284;47.042;15.498;2023-02-10T02:41:06;98986.00;;;-8.13;82.41
57442;BME280;43284;47.042;15.498;2023-02-10T02:43:32;98978.22;;;-8.16;82.12
57442;BME280;43284;47.042;15.498;2023-02-10T02:51:09;98987.50;;;-8.17;82.49
57442;BME280;43284;47.042;15.498;2023-02-10T02:53:51;98995.34;;;-8.12;82.69
57442;BME280;43284;47.042;15.498;2023-02-10T02:59:20;98992.44;;;-8.03;82.26
57442;BME280;43284;47.042;15.498;2023-02-10T03:01:52;98988.41;;;-8.00;82.59
57442;BME280;43284;47.042;15.498;2023-02-10T03:04:20;98988.56;;;-7.97;82.12
57442;BME280;43284;47.042;15.498;2023-02-10T03:06:46;98993.78;;;-7.94;81.94
57442;BME280;43284;47.042;15.498;2023-02-10T03:09:12;98988.91;;;-7.91;82.24
57442;BME280;43284;47.042;15.498;2023-02-10T03:11:38;98998.19;;;-7.91;81.79
57442;BME280;43284;47.042;15.498;2023-02-10T03:14:03;99001.59;;;-7.91;81.11
57442;BME280;43284;47.042;15.498;2023-02-10T03:16:29;99005.72;;;-7.93;80.59
57442;BME280;43284;47.042;15.498;2023-02-10T03:18:55;99007.78;;;-7.85;80.87
57442;BME280;43284;47.042;15.498;2023-02-10T03:21:20;99000.25;;;-7.84;80.67
57442;BME280;43284;47.042;15.498;2023-02-10T03:23:46;99002.88;;;-7.82;81.04
57442;BME280;43284;47.042;15.498;2023-02-10T03:26:12;98998.81;;;-7.79;81.55
57442;BME280;43284;47.042;15.498;2023-02-10T03:28:37;98999.69;;;-7.78;81.40
57442;BME280;43284;47.042;15.498;2023-02-10T03:31:05;99011.13;;;-7.87;80.23
57442;BME280;43284;47.042;15.498;2023-02-10T03:33:31;99007.44;;;-7.92;80.47
57442;BME280;43284;47.042;15.498;2023-02-10T03:35:57;99008.25;;;-7.93;81.02
57442;BME280;43284;47.042;15.498;2023-02-10T03:38:23;99011.66;;;-7.92;81.89
57442;BME280;43284;47.042;15.498;2023-02-10T03:40:51;99009.41;;;-8.02;80.51
57442;BME280;43284;47.042;15.498;2023-02-10T03:43:18;99021.69;;;-8.10;80.94
57442;BME280;43284;47.042;15.498;2023-02-10T03:45:44;99023.97;;;-8.15;80.70
57442;BME280;43284;47.042;15.498;2023-02-10T03:48:10;99020.38;;;-8.18;80.79
57442;BME280;43284;47.042;15.498;2023-02-10T03:50:36;99018.56;;;-8.21;82.10
57442;BME280;43284;47.042;15.498;2023-02-10T03:53:04;99018.31;;;-8.25;81.40
57442;BME280;43284;47.042;15.498;2023-02-10T03:55:31;99015.78;;;-8.25;82.14
57442;BME280;43284;47.042;15.498;2023-02-10T03:57:56;99014.91;;;-8.26;81.99
57442;BME280;43284;47.042;15.498;2023-02-10T04:00:23;99013.13;;;-8.27;81.55
57442;BME280;43284;47.042;15.498;2023-02-10T04:02:49;99034.22;;;-8.28;81.98
57442;BME280;43284;47.042;15.498;2023-02-10T04:05:14;99037.63;;;-8.27;82.14
57442;BME280;43284;47.042;15.498;2023-02-10T04:07:40;99046.56;;;-8.34;81.35
57442;BME280;43284;47.042;15.498;2023-02-10T04:10:06;99037.69;;;-8.42;81.51
57442;BME280;43284;47.042;15.498;2023-02-10T04:12:32;99036.56;;;-8.47;81.06
57442;BME280;43284;47.042;15.498;2023-02-10T04:14:58;99040.75;;;-8.48;82.10
57442;BME280;43284;47.042;15.498;2023-02-10T04:17:23;99037.16;;;-8.52;81.93
57442;BME280;43284;47.042;15.498;2023-02-10T04:19:49;99034.97;;;-8.45;82.98
57442;BME280;43284;47.042;15.498;2023-02-10T04:22:15;99034.13;;;-8.46;82.32
57442;BME280;43284;47.042;15.498;2023-02-10T04:24:40;99031.75;;;-8.43;82.82
57442;BME280;43284;47.042;15.498;2023-02-10T04:27:06;99036.00;;;-8.42;82.96
57442;BME280;43284;47.042;15.498;2023-02-10T04:29:34;99032.81;;;-8.38;83.06
57442;BME280;43284;47.042;15.498;2023-02-10T04:32:06;99028.50;;;-8.40;82.28
57442;BME280;43284;47.042;15.498;2023-02-10T04:34:32;99031.34;;;-8.34;83.64
57442;BME280;43284;47.042;15.498;2023-02-10T04:36:57;99027.84;;;-8.36;82.94
57442;BME280;43284;47.042;15.498;2023-02-10T04:39:23;99020.94;;;-8.39;82.71
57442;BME280;43284;47.042;15.498;2023-02-10T04:41:49;99024.13;;;-8.43;82.12
57442;BME280;43284;47.042;15.498;2023-02-10T04:44:14;99018.19;;;-8.43;82.59
57442;BME280;43284;47.042;15.498;2023-02-10T04:46:40;99019.69;;;-8.62;82.58
57442;BME280;43284;47.042;15.498;2023-02-10T04:49:06;99021.59;;;-8.58;83.08
57442;BME280;43284;47.042;15.498;2023-02-10T04:51:31;99026.50;;;-8.61;83.36
57442;BME280;43284;47.042;15.498;2023-02-10T04:53:57;99031.47;;;-8.62;83.51
57442;BME280;43284;47.042;15.498;2023-02-10T04:56:22;99036.56;;;-8.62;83.35
57442;BME280;43284;47.042;15.498;2023-02-10T04:58:48;99039.19;;;-8.61;83.56
57442;BME280;43284;47.042;15.498;2023-02-10T05:01:16;99032.44;;;-8.60;83.48
57442;BME280;43284;47.042;15.498;2023-02-10T05:03:42;99033.41;;;-8.58;83.50
57442;BME280;43284;47.042;15.498;2023-02-10T05:06:09;99043.38;;;-8.61;82.88
57442;BME280;43284;47.042;15.498;2023-02-10T05:08:36;99041.47;;;-8.65;82.58
57442;BME280;43284;47.042;15.498;2023-02-10T05:11:07;99049.22;;;-8.62;83.35
57442;BME280;43284;47.042;15.498;2023-02-10T05:13:33;99043.09;;;-8.66;83.15
57442;BME280;43284;47.042;15.498;2023-02-10T05:15:58;99043.81;;;-8.68;82.57
57442;BME280;43284;47.042;15.498;2023-02-10T05:18:24;99047.94;;;-8.85;81.51
57442;BME280;43284;47.042;15.498;2023-02-10T05:20:50;99048.44;;;-8.91;83.46
57442;BME280;43284;47.042;15.498;2023-02-10T05:23:15;99043.63;;;-8.86;82.84
57442;BME280;43284;47.042;15.498;2023-02-10T05:25:41;99047.03;;;-8.86;83.73
57442;BME280;43284;47.042;15.498;2023-02-10T05:28:09;99053.91;;;-8.83;83.87
57442;BME280;43284;47.042;15.498;2023-02-10T05:30:34;99050.34;;;-8.87;83.80
57442;BME280;43284;47.042;15.498;2023-02-10T05:33:00;99056.03;;;-8.91;83.56
57442;BME280;43284;47.042;15.498;2023-02-10T05:35:25;99052.53;;;-8.93;83.79
57442;BME280;43284;47.042;15.498;2023-02-10T05:37:53;99048.59;;;-8.88;84.46
57442;BME280;43284;47.042;15.498;2023-02-10T05:40:19;99059.78;;;-8.84;84.61
57442;BME280;43284;47.042;15.498;2023-02-10T05:42:45;99057.84;;;-8.88;83.92
57442;BME280;43284;47.042;15.498;2023-02-10T05:45:10;99060.22;;;-8.92;84.06
57442;BME280;43284;47.042;15.498;2023-02-10T05:47:36;99064.31;;;-8.94;83.82
57442;BME280;43284;47.042;15.498;2023-02-10T05:50:02;99052.25;;;-8.98;84.01
57442;BME280;43284;47.042;15.498;2023-02-10T05:52:27;99063.16;;;-8.99;83.21
57442;BME280;43284;47.042;15.498;2023-02-10T05:54:53;99055.66;;;-8.97;84.30
57442;BME280;43284;47.042;15.498;2023-02-10T05:57:19;99062.28;;;-8.99;83.25
57442;BME280;43284;47.042;15.498;2023-02-10T05:59:44;99070.69;;;-9.00;83.50
57442;BME280;43284;47.042;15.498;2023-02-10T06:02:10;99074.78;;;-9.02;83.49
57442;BME280;43284;47.042;15.498;2023-02-10T06:04:36;99066.41;;;-9.01;84.06
57442;BME280;43284;47.042;15.498;2023-02-10T06:07:01;99073.94;;;-9.03;83.62
57442;BME280;43284;47.042;15.498;2023-02-10T06:09:27;99078.91;;;-9.04;83.53
57442;BME280;43284;47.042;15.498;2023-02-10T06:11:53;99073.72;;;-9.06;83.36
57442;BME280;43284;47.042;15.498;2023-02-10T06:14:19;99068.50;;;-9.09;83.70
57442;BME280;43284;47.042;15.498;2023-02-10T06:16:45;99081.22;;;-9.07;84.19
57442;BME280;43284;47.042;15.498;2023-02-10T06:19:11;99071.56;;;-9.00;84.72
57442;BME280;43284;47.042;15.498;2023-02-10T06:21:37;99072.78;;;-8.93;84.80
57442;BME280;43284;47.042;15.498;2023-02-10T06:24:03;99073.59;;;-8.94;83.71
57442;BME280;43284;47.042;15.498;2023-02-10T06:26:29;99080.72;;;-9.02;83.21
57442;BME280;43284;47.042;15.498;2023-02-10T06:28:55;99080.84;;;-9.00;83.57
57442;BME280;43284;47.042;15.498;2023-02-10T06:31:21;99078.03;;;-9.05;83.28
57442;BME280;43284;47.042;15.498;2023-02-10T06:33:47;99080.34;;;-9.08;83.53
57442;BME280;43284;47.042;15.498;2023-02-10T06:36:13;99091.88;;;-9.13;84.08
57442;BME280;43284;47.042;15.498;2023-02-10T06:38:39;99101.69;;;-9.04;84.94
57442;BME280;43284;47.042;15.498;2023-02-10T06:41:05;99099.31;;;-9.01;84.77
57442;BME280;43284;47.042;15.498;2023-02-10T06:43:32;99117.53;;;-8.94;85.42
57442;BME280;43284;47.042;15.498;2023-02-10T06:45:57;99121.81;;;-8.93;84.83
57442;BME280;43284;47.042;15.498;2023-02-10T06:48:23;99118.44;;;-8.78;86.05
57442;BME280;43284;47.042;15.498;2023-02-10T06:50:49;99122.28;;;-8.85;84.20
57442;BME280;43284;47.042;15.498;2023-02-10T06:53:15;99122.34;;;-8.83;83.94
57442;BME280;43284;47.042;15.498;2023-02-10T06:55:42;99125.25;;;-8.77;84.45
57442;BME280;43284;47.042;15.498;2023-02-10T06:58:08;99126.31;;;-8.74;84.52
57442;BME280;43284;47.042;15.498;2023-02-10T07:00:34;99129.97;;;-8.68;84.60
57442;BME280;43284;47.042;15.498;2023-02-10T07:03:00;99128.63;;;-8.63;84.29
57442;BME280;43284;47.042;15.498;2023-02-10T07:05:26;99126.78;;;-8.51;84.57
57442;BME280;43284;47.042;15.498;2023-02-10T07:07:52;99132.19;;;-8.45;83.97
57442;BME280;43284;47.042;15.498;2023-02-10T07:10:20;99130.97;;;-8.37;84.38
57442;BME280;43284;47.042;15.498;2023-02-10T07:12:46;99138.03;;;-8.31;84.11
57442;BME280;43284;47.042;15.498;2023-02-10T07:15:15;99132.59;;;-8.22;84.00
57442;BME280;43284;47.042;15.498;2023-02-10T07:17:43;99134.88;;;-8.12;84.52
57442;BME280;43284;47.042;15.498;2023-02-10T07:20:11;99136.00;;;-8.07;84.21
57442;BME280;43284;47.042;15.498;2023-02-10T07:22:37;99145.03;;;-7.97;83.95
57442;BME280;43284;47.042;15.498;2023-02-10T07:25:03;99141.28;;;-7.89;83.88
57442;BME280;43284;47.042;15.498;2023-02-10T07:27:29;99145.53;;;-7.73;84.71
57442;BME280;43284;47.042;15.498;2023-02-10T07:29:55;99135.72;;;-7.67;83.98
57442;BME280;43284;47.042;15.498;2023-02-10T07:32:21;99136.22;;;-7.58;84.27
57442;BME280;43284;47.042;15.498;2023-02-10T07:34:46;99141.88;;;-7.47;83.44
57442;BME280;43284;47.042;15.498;2023-02-10T07:37:15;99143.94;;;-7.40;83.72
57442;BME280;43284;47.042;15.498;2023-02-10T07:39:40;99140.69;;;-7.37;83.40
57442;BME280;43284;47.042;15.498;2023-02-10T07:42:06;99141.19;;;-7.28;83.21
57442;BME280;43284;47.042;15.498;2023-02-10T07:44:32;99140.56;;;-7.24;82.89
57442;BME280;43284;47.042;15.498;2023-02-10T07:46:57;99149.31;;;-7.19;82.91
57442;BME280;43284;47.042;15.498;2023-02-10T07:49:23;99142.91;;;-7.12;82.82
57442;BME280;43284;47.042;15.498;2023-02-10T07:51:50;99139.25;;;-7.01;82.97
57442;BME280;43284;47.042;15.498;2023-02-10T07:54:15;99145.75;;;-6.90;82.89
57442;BME280;43284;47.042;15.498;2023-02-10T07:56:41;99154.09;;;-6.76;82.51
57442;BME280;43284;47.042;15.498;2023-02-10T07:59:07;99151.78;;;-6.71;82.17
57442;BME280;43284;47.042;15.498;2023-02-10T08:01:32;99153.78;;;-6.66;81.98
57442;BME280;43284;47.042;15.498;2023-02-10T08:03:59;99155.66;;;-6.45;81.83
57442;BME280;43284;47.042;15.498;2023-02-10T08:06:26;99151.59;;;-6.25;81.09
57442;BME280;43284;47.042;15.498;2023-02-10T08:08:52;99154.19;;;-6.07;80.95
57442;BME280;43284;47.042;15.498;2023-02-10T08:11:18;99156.13;;;-6.02;80.26
57442;BME280;43284;47.042;15.498;2023-02-10T08:13:45;99162.53;;;-5.92;79.80
57442;BME280;43284;47.042;15.498;2023-02-10T08:16:10;99162.75;;;-5.87;79.47
57442;BME280;43284;47.042;15.498;2023-02-10T08:18:40;99161.75;;;-5.55;78.56
57442;BME280;43284;47.042;15.498;2023-02-10T08:21:06;99157.66;;;-5.33;77.43
57442;BME280;43284;47.042;15.498;2023-02-10T08:23:32;99152.81;;;-4.90;76.68
57442;BME280;43284;47.042;15.498;2023-02-10T08:25:58;99148.16;;;-4.81;75.55
57442;BME280;43284;47.042;15.498;2023-02-10T08:28:24;99138.94;;;-4.77;75.06
57442;BME280;43284;47.042;15.498;2023-02-10T08:30:49;99140.97;;;-4.70;75.18
57442;BME280;43284;47.042;15.498;2023-02-10T08:33:15;99137.78;;;-4.45;74.12
57442;BME280;43284;47.042;15.498;2023-02-10T08:35:41;99135.31;;;-4.43;72.84
57442;BME280;43284;47.042;15.498;2023-02-10T08:38:07;99135.69;;;-4.34;71.51
57442;BME280;43284;47.042;15.498;2023-02-10T08:40:34;99139.25;;;-4.09;74.38
57442;BME280;43284;47.042;15.498;2023-02-10T08:43:01;99144.44;;;-4.08;72.55
57442;BME280;43284;47.042;15.498;2023-02-10T08:45:26;99146.25;;;-4.05;72.18
57442;BME280;43284;47.042;15.498;2023-02-10T08:47:52;99146.09;;;-3.87;71.01
57442;BME280;43284;47.042;15.498;2023-02-10T08:50:18;99146.97;;;-3.66;71.21
57442;BME280;43284;47.042;15.498;2023-02-10T08:52:43;99147.16;;;-3.61;69.28
57442;BME280;43284;47.042;15.498;2023-02-10T08:55:09;99145.69;;;-3.56;70.45
57442;BME280;43284;47.042;15.498;2023-02-10T08:57:37;99149.56;;;-3.43;71.37
57442;BME280;43284;47.042;15.498;2023-02-10T09:00:06;99148.34;;;-3.53;70.92
57442;BME280;43284;47.042;15.498;2023-02-10T09:02:32;99147.72;;;-3.25;69.14
57442;BME280;43284;47.042;15.498;2023-02-10T09:04:58;99148.59;;;-3.24;67.85
57442;BME280;43284;47.042;15.498;2023-02-10T09:07:23;99146.91;;;-3.01;68.50
57442;BME280;43284;47.042;15.498;2023-02-10T09:09:49;99149.22;;;-2.85;67.56
57442;BME280;43284;47.042;15.498;2023-02-10T09:12:15;99150.38;;;-2.77;67.32
57442;BME280;43284;47.042;15.498;2023-02-10T09:14:41;99152.56;;;-2.63;65.43
57442;BME280;43284;47.042;15.498;2023-02-10T09:17:07;99150.97;;;-2.60;65.15
57442;BME280;43284;47.042;15.498;2023-02-10T09:19:37;99150.97;;;-2.60;63.70
57442;BME280;43284;47.042;15.498;2023-02-10T09:22:06;99152.28;;;-2.47;65.05
57442;BME280;43284;47.042;15.498;2023-02-10T09:24:33;99163.16;;;-2.29;65.52
57442;BME280;43284;47.042;15.498;2023-02-10T09:26:59;99158.34;;;-2.19;64.98
57442;BME280;43284;47.042;15.498;2023-02-10T09:29:25;99163.72;;;-1.86;65.72
57442;BME280;43284;47.042;15.498;2023-02-10T09:31:51;99159.44;;;-1.87;64.12
57442;BME280;43284;47.042;15.498;2023-02-10T09:34:17;99160.44;;;-1.82;64.17
57442;BME280;43284;47.042;15.498;2023-02-10T09:36:43;99166.81;;;-1.71;65.06
57442;BME280;43284;47.042;15.498;2023-02-10T09:39:09;99169.38;;;-1.71;64.06
57442;BME280;43284;47.042;15.498;2023-02-10T09:44:25;99162.78;;;-1.62;64.00
57442;BME280;43284;47.042;15.498;2023-02-10T09:49:45;99159.69;;;-1.25;62.94
57442;BME280;43284;47.042;15.498;2023-02-10T09:54:48;99156.44;;;-0.91;61.89
57442;BME280;43284;47.042;15.498;2023-02-10T09:57:20;99149.75;;;-1.14;61.74
57442;BME280;43284;47.042;15.498;2023-02-10T09:59:49;99160.13;;;-0.81;61.72
57442;BME280;43284;47.042;15.498;2023-02-10T10:02:46;99149.72;;;-0.87;61.15
57442;BME280;43284;47.042;15.498;2023-02-10T10:08:34;99152.53;;;-0.78;61.27
57442;BME280;43284;47.042;15.498;2023-02-10T10:11:48;99146.63;;;-0.75;60.28
57442;BME280;43284;47.042;15.498;2023-02-10T10:14:25;99154.44;;;-0.71;59.25
57442;BME280;43284;47.042;15.498;2023-02-10T10:25:20;99131.13;;;-0.15;56.99
57442;BME280;43284;47.042;15.498;2023-02-10T10:33:04;99124.19;;;-0.19;56.39
57442;BME280;43284;47.042;15.498;2023-02-10T10:35:39;99126.34;;;-0.01;56.72
57442;BME280;43284;47.042;15.498;2023-02-10T10:38:17;99116.19;;;0.40;56.06
57442;BME280;43284;47.042;15.498;2023-02-10T10:40:45;99115.94;;;0.29;55.57
57442;BME280;43284;47.042;15.498;2023-02-10T10:43:19;99109.00;;;0.63;54.04
57442;BME280;43284;47.042;15.498;2023-02-10T10:45:49;99100.97;;;0.49;51.64
57442;BME280;43284;47.042;15.498;2023-02-10T10:48:19;99099.84;;;0.76;54.42
57442;BME280;43284;47.042;15.498;2023-02-10T10:50:51;99101.44;;;0.71;54.12
57442;BME280;43284;47.042;15.498;2023-02-10T10:53:22;99099.59;;;0.64;53.63
57442;BME280;43284;47.042;15.498;2023-02-10T10:55:56;99096.63;;;0.86;53.62
57442;BME280;43284;47.042;15.498;2023-02-10T10:58:58;99095.09;;;0.96;54.37
57442;BME280;43284;47.042;15.498;2023-02-10T11:01:18;99094.78;;;1.21;52.34
57442;BME280;43284;47.042;15.498;2023-02-10T11:04:16;99099.97;;;1.23;52.12
57442;BME280;43284;47.042;15.498;2023-02-10T11:06:45;99088.84;;;1.26;51.24
57442;BME280;43284;47.042;15.498;2023-02-10T11:09:23;99088.09;;;1.30;50.99
57442;BME280;43284;47.042;15.498;2023-02-10T11:11:53;99088.09;;;1.30;50.95
57442;BME280;43284;47.042;15.498;2023-02-10T11:14:27;99091.94;;;1.52;50.45
57442;BME280;43284;47.042;15.498;2023-02-10T11:16:54;99090.28;;;1.55;49.20
57442;BME280;43284;47.042;15.498;2023-02-10T11:19:25;99078.47;;;1.68;50.07
57442;BME280;43284;47.042;15.498;2023-02-10T11:21:52;99070.72;;;1.67;49.94
57442;BME280;43284;47.042;15.498;2023-02-10T11:24:33;99068.28;;;1.74;49.47
57442;BME280;43284;47.042;15.498;2023-02-10T11:27:17;99059.63;;;1.72;47.94
57442;BME280;43284;47.042;15.498;2023-02-10T11:29:48;99064.56;;;1.58;48.27
57442;BME280;43284;47.042;15.498;2023-02-10T11:32:34;99051.34;;;1.89;48.81
57442;BME280;43284;47.042;15.498;2023-02-10T11:35:02;99057.63;;;2.08;49.20
57442;BME280;43284;47.042;15.498;2023-02-10T11:37:37;99051.03;;;2.25;47.99
57442;BME280;43284;47.042;15.498;2023-02-10T11:40:16;99044.97;;;2.23;48.25
57442;BME280;43284;47.042;15.498;2023-02-10T11:42:47;99047.09;;;2.48;47.42
57442;BME280;43284;47.042;15.498;2023-02-10T11:47:44;99043.25;;;2.83;47.68
57442;BME280;43284;47.042;15.498;2023-02-10T11:50:29;99036.22;;;2.73;46.63
57442;BME280;43284;47.042;15.498;2023-02-10T11:52:56;99037.25;;;2.85;45.63
57442;BME280;43284;47.042;15.498;2023-02-10T11:55:25;99029.56;;;2.90;44.84
57442;BME280;43284;47.042;15.498;2023-02-10T12:04:35;99022.19;;;3.22;42.55
57442;BME280;43284;47.042;15.498;2023-02-10T12:07:09;99029.03;;;3.20;44.16
57442;BME280;43284;47.042;15.498;2023-02-10T12:09:53;99029.06;;;3.23;44.63
57442;BME280;43284;47.042;15.498;2023-02-10T12:12:41;99020.44;;;3.21;44.56
57442;BME280;43284;47.042;15.498;2023-02-10T12:23:57;99007.13;;;3.71;45.37
57442;BME280;43284;47.042;15.498;2023-02-10T12:26:37;99001.25;;;3.91;42.42
57442;BME280;43284;47.042;15.498;2023-02-10T12:29:17;98996.13;;;3.97;43.11
57442;BME280;43284;47.042;15.498;2023-02-10T12:40:27;98996.38;;;4.31;40.74
57442;BME280;43284;47.042;15.498;2023-02-10T12:51:57;98974.94;;;4.63;41.00
57442;BME280;43284;47.042;15.498;2023-02-10T12:54:50;98975.03;;;4.80;40.92
57442;BME280;43284;47.042;15.498;2023-02-10T13:02:28;98959.53;;;4.92;39.55
57442;BME280;43284;47.042;15.498;2023-02-10T13:05:01;98954.41;;;5.07;39.91
57442;BME280;43284;47.042;15.498;2023-02-10T13:10:02;98950.09;;;5.25;38.55
57442;BME280;43284;47.042;15.498;2023-02-10T13:12:36;98951.84;;;5.40;39.16
57442;BME280;43284;47.042;15.498;2023-02-10T13:15:12;98953.59;;;5.56;39.57
57442;BME280;43284;47.042;15.498;2023-02-10T13:17:47;98963.06;;;5.32;38.29
57442;BME280;43284;47.042;15.498;2023-02-10T13:23:23;98955.28;;;5.88;38.89
57442;BME280;43284;47.042;15.498;2023-02-10T13:26:08;98952.72;;;5.78;38.09
57442;BME280;43284;47.042;15.498;2023-02-10T13:34:03;98946.69;;;6.04;37.41
57442;BME280;43284;47.042;15.498;2023-02-10T13:36:37;98952.72;;;6.17;37.00
57442;BME280;43284;47.042;15.498;2023-02-10T13:39:21;98958.78;;;6.07;37.44
57442;BME280;43284;47.042;15.498;2023-02-10T13:41:49;98955.34;;;6.02;37.98
57442;BME280;43284;47.042;15.498;2023-02-10T13:44:28;98957.88;;;6.18;37.41
57442;BME280;43284;47.042;15.498;2023-02-10T13:47:22;98957.88;;;6.26;37.86
57442;BME280;43284;47.042;15.498;2023-02-10T13:49:53;98973.50;;;6.11;37.48
57442;BME280;43284;47.042;15.498;2023-02-10T13:52:31;98965.66;;;6.29;37.70
57442;BME280;43284;47.042;15.498;2023-02-10T13:55:24;98958.78;;;6.14;36.56
57442;BME280;43284;47.042;15.498;2023-02-10T13:58:27;98953.59;;;6.01;38.00
57442;BME280;43284;47.042;15.498;2023-02-10T14:00:55;98963.13;;;6.06;37.99
57442;BME280;43284;47.042;15.498;2023-02-10T14:03:25;98959.66;;;5.96;38.79
57442;BME280;43284;47.042;15.498;2023-02-10T14:08:28;98963.13;;;5.82;38.76
57442;BME280;43284;47.042;15.498;2023-02-10T14:13:39;98959.63;;;5.56;40.36
57442;BME280;43284;47.042;15.498;2023-02-10T14:16:51;98957.91;;;5.62;39.91
57442;BME280;43284;47.042;15.498;2023-02-10T14:19:02;98957.03;;;5.61;39.41
57442;BME280;43284;47.042;15.498;2023-02-10T14:21:42;98950.97;;;5.37;39.64
57442;BME280;43284;47.042;15.498;2023-02-10T14:24:17;98949.19;;;5.18;40.67
57442;BME280;43284;47.042;15.498;2023-02-10T14:26:47;98945.78;;;5.42;40.88
57442;BME280;43284;47.042;15.498;2023-02-10T14:29:17;98954.44;;;5.67;40.49
57442;BME280;43284;47.042;15.498;2023-02-10T14:31:51;98954.44;;;5.44;38.73
57442;BME280;43284;47.042;15.498;2023-02-10T14:34:25;98957.03;;;5.44;39.41
57442;BME280;43284;47.042;15.498;2023-02-10T14:39:27;98968.16;;;4.86;40.92
57442;BME280;43284;47.042;15.498;2023-02-10T14:41:54;98968.13;;;4.80;40.68
57442;BME280;43284;47.042;15.498;2023-02-10T14:44:34;98970.75;;;4.92;40.85